WetterOnline ( https://www.wetteronline.de )

Wetter aktuell Borgentreich

Aktuelles Wetter: Warburg (237m)

6-stündlich | Neueste Meldungen
Ortszeit Temperatur Wetter
Mi, 19.06. 2:00 16.4° C bedeckt
Di, 18.06. 20:00 25.7° C wolkig
Di, 18.06. 14:00 26.5° C leicht bewölkt
Di, 18.06. 8:00 16.2° C leicht bewölkt
Di, 18.06. 2:00 13.7° C fast wolkenlos
Mo, 17.06. 20:00 23.2° C wolkenlos
Mo, 17.06. 14:00 21.9° C bewölkt
Mo, 17.06. 8:00 13.0° C Nebel
Ortszeit Temperatur Wetter
Mi, 19.06. 7:00 18.0° C bedeckt
Mi, 19.06. 6:50 18.0° C bedeckt
Mi, 19.06. 6:40 17.6° C bedeckt
Mi, 19.06. 6:30 17.4° C bedeckt
Mi, 19.06. 6:20 17.4° C bedeckt
Mi, 19.06. 6:10 16.6° C bedeckt
Mi, 19.06. 6:00 15.1° C bedeckt
Mi, 19.06. 5:30 14.5° C bedeckt
Mi, 19.06. 5:00 14.7° C bedeckt
Mi, 19.06. 4:30 14.9° C bedeckt
Mi, 19.06. 4:00 15.4° C bedeckt
Ortszeit Relative Feuchte Sichtweite
Mi, 19.06. 2:00 90% 13 km
Di, 18.06. 20:00 61% 45 km
Di, 18.06. 14:00 47% 35 km
Di, 18.06. 8:00 84% 11 km
Di, 18.06. 2:00 93% 17 km
Mo, 17.06. 20:00 54% 50 km
Mo, 17.06. 14:00 56% 45 km
Mo, 17.06. 8:00 94% 0.9 km
Ortszeit Relative Feuchte Sichtweite
Mi, 19.06. 7:00 86% 10 km
Mi, 19.06. 6:50 86% -
Mi, 19.06. 6:40 84% -
Mi, 19.06. 6:30 86% 9 km
Mi, 19.06. 6:20 86% -
Mi, 19.06. 6:10 92% -
Mi, 19.06. 6:00 97% 5.0 km
Mi, 19.06. 5:30 97% 7 km
Mi, 19.06. 5:00 97% 7 km
Mi, 19.06. 4:30 95% 9 km
Mi, 19.06. 4:00 95% 9 km
Ortszeit Niederschlagsmenge Niederschlagsart
Mi, 19.06. 2:00 0.0 l/m2 in 6 Std. -
Di, 18.06. 20:00 0.0 l/m2 in 12 Std. -
Di, 18.06. 14:00 0.0 l/m2 in 6 Std. -
Di, 18.06. 8:00 0.0 l/m2 in 12 Std. -
Di, 18.06. 2:00 0.0 l/m2 in 6 Std. -
Mo, 17.06. 20:00 0.0 l/m2 in 12 Std. -
Mo, 17.06. 14:00 0.0 l/m2 in 6 Std. -
Mo, 17.06. 8:00 0.0 l/m2 in 12 Std. -
Ortszeit Niederschlagsmenge Niederschlagsart
Mi, 19.06. 7:00 0.0 l/m2 in 1 Std. -
Mi, 19.06. 6:50 keine Meldung -
Mi, 19.06. 6:40 keine Meldung -
Mi, 19.06. 6:30 0.0 l/m2 in 1 Std. -
Mi, 19.06. 6:20 keine Meldung -
Mi, 19.06. 6:10 keine Meldung -
Mi, 19.06. 6:00 0.0 l/m2 in 1 Std. -
Mi, 19.06. 5:30 0.0 l/m2 in 1 Std. -
Mi, 19.06. 5:00 0.0 l/m2 in 1 Std. -
Mi, 19.06. 4:30 0.0 l/m2 in 1 Std. -
Mi, 19.06. 4:00 0.0 l/m2 in 1 Std. -
Ortszeit Stärke Spitze Richtung
km/h Bft. km/h Grad Sektor
Mi, 19.06. 2:00 6 1 9 300° NW
Di, 18.06. 20:00 4 1 22 160° S
Di, 18.06. 14:00 13 3 22 140° SO
Di, 18.06. 8:00 4 1 7 140° SO
Di, 18.06. 2:00 7 2 14 300° NW
Mo, 17.06. 20:00 11 2 22 80° O
Mo, 17.06. 14:00 11 2 22 90° O
Mo, 17.06. 8:00 0 0 7 - -
Ortszeit Stärke Spitze Richtung
km/h Bft. km/h Grad Sektor
Mi, 19.06. 7:00 0 0 7 - -
Mi, 19.06. 6:50 0 0 - - -
Mi, 19.06. 6:40 0 0 - 220° SW
Mi, 19.06. 6:30 2 1 6 260° W
Mi, 19.06. 6:20 2 1 - 260° W
Mi, 19.06. 6:10 4 1 - 190° S
Mi, 19.06. 6:00 4 1 4 190° S
Mi, 19.06. 5:30 2 1 4 270° W
Mi, 19.06. 5:00 4 1 4 290° W
Mi, 19.06. 4:30 4 1 4 310° NW
Mi, 19.06. 4:00 2 1 6 310° NW
Ortszeit Untergrenze Bedeckung Gattung
total tief tief mittel hoch
Mi, 19.06. 2:00 4800 m 8/8 8/8 - - -
Di, 18.06. 20:00 6300 m 8/8 3/8 - - -
Di, 18.06. 14:00 1500 m 6/8 1/8 - - -
Di, 18.06. 8:00 2100 m 8/8 1/8 - - -
Di, 18.06. 2:00 1800 m 0/8 0/8 - - -
Mo, 17.06. 20:00 - 0/8 0/8 - - -
Mo, 17.06. 14:00 1230 m 7/8 7/8 - - -
Mo, 17.06. 8:00 <30 m 8/8 0/8 - - -
Ortszeit Bedeckungsgrad in Achtel und Wolkenuntergrenze
Mi, 19.06. 7:00 8(4500m) 8(6900m)
Mi, 19.06. 6:50 8(4500m) 8(6900m)
Mi, 19.06. 6:40 8(4500m) 8(8100m)
Mi, 19.06. 6:30 8(4800m) 8(6300m) 8(8100m)
Mi, 19.06. 6:20 8(4800m) 8(6300m) 8(8100m)
Mi, 19.06. 6:10 8(4800m) 8(6300m) 8(8100m)
Mi, 19.06. 6:00 8(5100m) 8(6300m) 8(7500m)
Mi, 19.06. 5:30 5(5100m) 8(6600m) 8(6900m)
Mi, 19.06. 5:00 8(4800m) 8(6600m) 8(9000m)
Mi, 19.06. 4:30 8(4500m) 8(6300m) 8(6900m)
Mi, 19.06. 4:00 8(4500m) 8(7200m) 8(8100m)
Ortszeit Luftdruck NN (hPa) Tendenz (hPa in 3 Std.)
Mi, 19.06. 2:00 1012 - 0,7
Di, 18.06. 20:00 1012 - 0,9
Di, 18.06. 14:00 1014 - 1,3
Di, 18.06. 8:00 1017 - 0,2
Di, 18.06. 2:00 1018 - 0,2
Mo, 17.06. 20:00 1018 - 1,2
Mo, 17.06. 14:00 1020 - 1,2
Mo, 17.06. 8:00 1023 + 0,3
Ortszeit Luftdruck NN (hPa) Tendenz (hPa in 3 Std.)
Mi, 19.06. 7:00 1010 - 0,5
Mi, 19.06. 6:50 1010 keine Meldung
Mi, 19.06. 6:40 1010 keine Meldung
Mi, 19.06. 6:30 1010 - 0,6
Mi, 19.06. 6:20 1010 keine Meldung
Mi, 19.06. 6:10 1010 keine Meldung
Mi, 19.06. 6:00 1011 - 0,8
Mi, 19.06. 5:30 1011 - 0,9
Mi, 19.06. 5:00 1011 - 0,9
Mi, 19.06. 4:30 1011 - 1,0
Mi, 19.06. 4:00 1011 - 1,1
Ortszeit Schneehöhe (cm)
Mi, 19.06. 2:00 -
Di, 18.06. 20:00 -
Di, 18.06. 14:00 -
Di, 18.06. 8:00 -
Di, 18.06. 2:00 -
Mo, 17.06. 20:00 -
Mo, 17.06. 14:00 -
Mo, 17.06. 8:00 -
Ortszeit Schneehöhe (cm)
Mi, 19.06. 7:00 -
Mi, 19.06. 6:50 -
Mi, 19.06. 6:40 -
Mi, 19.06. 6:30 -
Mi, 19.06. 6:20 -
Mi, 19.06. 6:10 -
Mi, 19.06. 6:00 -
Mi, 19.06. 5:30 -
Mi, 19.06. 5:00 -
Mi, 19.06. 4:30 -
Mi, 19.06. 4:00 -
Link zu dieser Seite / Seite empfehlen

Das Wetter in ...